Orbital elements of FENGYUN 1C DEB
| Launched | 9 May 1999 |
| Flight ended | – |
| Launch site | Taiyuan Space Center, PRC |
| Owner | People's Republic of China |
| NORAD ID | 31055 |
| Date fetched |
Epoch osculation |
Inc. [°] |
Ecc. | RA asc node [hr] |
Arg Peri. [°] |
Mean anom [°] |
Mean motion [rev/day] |
Abs. mag |
| Date fetched |
Epoch osculation |
Inc. [°] |
Ecc. | RA asc node [hr] |
Arg Peri. [°] |
Mean anom [°] |
Mean motion [rev/day] |
Abs. mag |
| 2026 May 08 17:57 | 2026 May 05 13:26:06 | 98.7404 | 0.00241 | 10.5307 | 222.2455 | 291.1431 | 14.10554 | – |
| 2026 May 07 17:58 | 2026 May 05 13:26:06 | 98.7404 | 0.00241 | 10.5307 | 222.2455 | 291.1431 | 14.10554 | – |
| 2026 May 06 17:57 | 2026 May 05 13:26:06 | 98.7404 | 0.00241 | 10.5307 | 222.2455 | 291.1431 | 14.10554 | – |
| 2026 May 05 17:57 | 2026 May 05 13:26:06 | 98.7404 | 0.00241 | 10.5307 | 222.2455 | 291.1431 | 14.10554 | – |
| 2026 May 04 17:57 | 2026 Apr 30 08:30:05 | 98.7407 | 0.00238 | 10.1931 | 237.4430 | 291.1431 | 14.10554 | – |
| 2026 May 03 17:57 | 2026 Apr 30 08:30:05 | 98.7407 | 0.00238 | 10.1931 | 237.4430 | 291.1431 | 14.10554 | – |
| 2026 May 02 17:57 | 2026 Apr 30 08:30:05 | 98.7407 | 0.00238 | 10.1931 | 237.4430 | 291.1431 | 14.10554 | – |
| 2026 May 01 17:56 | 2026 Apr 30 08:30:05 | 98.7407 | 0.00238 | 10.1931 | 237.4430 | 291.1431 | 14.10554 | – |
| 2026 Apr 30 17:56 | 2026 Apr 30 08:30:05 | 98.7407 | 0.00238 | 10.1931 | 237.4430 | 291.1431 | 14.10554 | – |
| 2026 Apr 29 17:57 | 2026 Apr 24 01:10:44 | 98.7419 | 0.00236 | 9.7843 | 256.1647 | 291.1431 | 14.10554 | – |
| 2026 Apr 28 17:56 | 2026 Apr 24 01:10:44 | 98.7419 | 0.00236 | 9.7843 | 256.1647 | 291.1431 | 14.10554 | – |
| 2026 Apr 27 17:58 | 2026 Apr 24 01:10:44 | 98.7419 | 0.00236 | 9.7843 | 256.1647 | 291.1431 | 14.10554 | – |
| 2026 Apr 26 17:58 | 2026 Apr 24 01:10:44 | 98.7419 | 0.00236 | 9.7843 | 256.1647 | 291.1431 | 14.10554 | – |
| 2026 Apr 25 17:58 | 2026 Apr 24 01:10:44 | 98.7419 | 0.00236 | 9.7843 | 256.1647 | 291.1431 | 14.10554 | – |
| 2026 Apr 24 17:59 | 2026 Apr 24 01:10:44 | 98.7419 | 0.00236 | 9.7843 | 256.1647 | 291.1431 | 14.10554 | – |
| 2026 Apr 23 17:57 | 2026 Apr 19 01:51:56 | 98.7425 | 0.00235 | 9.4618 | 270.9911 | 291.1431 | 14.10554 | – |
| 2026 Apr 22 17:57 | 2026 Apr 19 01:51:56 | 98.7425 | 0.00235 | 9.4618 | 270.9911 | 291.1431 | 14.10554 | – |
| 2026 Apr 21 17:57 | 2026 Apr 19 01:51:56 | 98.7425 | 0.00235 | 9.4618 | 270.9911 | 291.1431 | 14.10554 | – |
| 2026 Apr 20 17:57 | 2026 Apr 19 01:51:56 | 98.7425 | 0.00235 | 9.4618 | 270.9911 | 291.1431 | 14.10554 | – |
| 2026 Apr 19 17:58 | 2026 Apr 19 01:51:56 | 98.7425 | 0.00235 | 9.4618 | 270.9911 | 291.1431 | 14.10554 | – |
| 2026 Apr 18 17:56 | 2026 Apr 13 01:10:44 | 98.7435 | 0.00235 | 9.0708 | 289.0490 | 291.1431 | 14.10554 | – |
| 2026 Apr 16 17:57 | 2026 Apr 13 01:10:44 | 98.7435 | 0.00235 | 9.0708 | 289.0490 | 291.1431 | 14.10554 | – |
| 2026 Apr 14 17:57 | 2026 Apr 13 01:10:44 | 98.7435 | 0.00235 | 9.0708 | 289.0490 | 291.1431 | 14.10554 | – |
| 2026 Apr 13 17:57 | 2026 Apr 13 01:10:44 | 98.7435 | 0.00235 | 9.0708 | 289.0490 | 291.1431 | 14.10554 | – |
| 2026 Apr 12 17:57 | 2026 Apr 08 14:30:59 | 98.7439 | 0.00235 | 8.7825 | 302.3842 | 291.1431 | 14.10554 | – |
| 2026 Apr 11 17:57 | 2026 Apr 08 14:30:59 | 98.7439 | 0.00235 | 8.7825 | 302.3842 | 291.1431 | 14.10554 | – |